sensor_id;sensor_type;location;lat;lon;timestamp;temperature;humidity
3086;DHT22;52812;48.960;9.108;2023-02-11T00:00:50;-3.50;99.90
3086;DHT22;52812;48.960;9.108;2023-02-11T00:03:16;-3.50;99.90
3086;DHT22;52812;48.960;9.108;2023-02-11T00:05:41;-3.60;99.90
3086;DHT22;52812;48.960;9.108;2023-02-11T00:08:07;-3.50;99.90
3086;DHT22;52812;48.960;9.108;2023-02-11T00:10:32;-3.60;99.90
3086;DHT22;52812;48.960;9.108;2023-02-11T00:12:58;-3.70;99.90
3086;DHT22;52812;48.960;9.108;2023-02-11T00:15:23;-3.70;99.90
3086;DHT22;52812;48.960;9.108;2023-02-11T00:17:49;-3.70;99.90
3086;DHT22;52812;48.960;9.108;2023-02-11T00:20:14;-3.70;99.90
3086;DHT22;52812;48.960;9.108;2023-02-11T00:22:40;-3.70;99.90
3086;DHT22;52812;48.960;9.108;2023-02-11T00:25:06;-3.70;99.90
3086;DHT22;52812;48.960;9.108;2023-02-11T00:27:31;-3.70;99.90
3086;DHT22;52812;48.960;9.108;2023-02-11T00:29:57;-3.70;99.90
3086;DHT22;52812;48.960;9.108;2023-02-11T00:32:25;-3.70;99.90
3086;DHT22;52812;48.960;9.108;2023-02-11T00:34:51;-3.70;99.90
3086;DHT22;52812;48.960;9.108;2023-02-11T00:37:17;-3.60;99.90
3086;DHT22;52812;48.960;9.108;2023-02-11T00:39:43;-3.60;99.90
3086;DHT22;52812;48.960;9.108;2023-02-11T00:42:12;-3.60;99.90
3086;DHT22;52812;48.960;9.108;2023-02-11T00:44:38;-3.60;99.90
3086;DHT22;52812;48.960;9.108;2023-02-11T00:47:04;-3.60;99.90
3086;DHT22;52812;48.960;9.108;2023-02-11T00:49:29;-3.60;99.90
3086;DHT22;52812;48.960;9.108;2023-02-11T00:51:55;-3.60;99.90
3086;DHT22;52812;48.960;9.108;2023-02-11T00:54:20;-3.60;99.90
3086;DHT22;52812;48.960;9.108;2023-02-11T00:56:46;-3.70;99.90
3086;DHT22;52812;48.960;9.108;2023-02-11T00:59:11;-3.70;99.90
3086;DHT22;52812;48.960;9.108;2023-02-11T01:01:37;-3.80;99.90
3086;DHT22;52812;48.960;9.108;2023-02-11T01:04:03;-3.90;99.90
3086;DHT22;52812;48.960;9.108;2023-02-11T01:06:28;-3.90;99.90
3086;DHT22;52812;48.960;9.108;2023-02-11T01:08:54;-3.80;99.90
3086;DHT22;52812;48.960;9.108;2023-02-11T01:11:21;-3.80;99.90
3086;DHT22;52812;48.960;9.108;2023-02-11T01:13:47;-3.70;99.90
3086;DHT22;52812;48.960;9.108;2023-02-11T01:16:13;-3.70;99.90
3086;DHT22;52812;48.960;9.108;2023-02-11T01:18:40;-3.80;99.90
3086;DHT22;52812;48.960;9.108;2023-02-11T01:21:07;-3.80;99.90
3086;DHT22;52812;48.960;9.108;2023-02-11T01:23:32;-3.80;99.90
3086;DHT22;52812;48.960;9.108;2023-02-11T01:25:58;-3.90;99.90
3086;DHT22;52812;48.960;9.108;2023-02-11T01:28:26;-3.90;99.90
3086;DHT22;52812;48.960;9.108;2023-02-11T01:30:52;-3.90;99.90
3086;DHT22;52812;48.960;9.108;2023-02-11T01:33:18;-3.90;99.90
3086;DHT22;52812;48.960;9.108;2023-02-11T01:35:44;-3.90;99.90
3086;DHT22;52812;48.960;9.108;2023-02-11T01:38:22;-3.90;99.90
3086;DHT22;52812;48.960;9.108;2023-02-11T01:41:01;-3.90;99.90
3086;DHT22;52812;48.960;9.108;2023-02-11T01:43:30;-3.80;99.90
3086;DHT22;52812;48.960;9.108;2023-02-11T01:49:10;-3.70;99.90
3086;DHT22;52812;48.960;9.108;2023-02-11T01:51:39;-3.80;99.90
3086;DHT22;52812;48.960;9.108;2023-02-11T01:54:08;-3.80;99.90
3086;DHT22;52812;48.960;9.108;2023-02-11T01:56:55;-3.90;99.90
3086;DHT22;52812;48.960;9.108;2023-02-11T02:02:31;-3.90;99.90
3086;DHT22;52812;48.960;9.108;2023-02-11T02:05:03;-3.90;99.90
3086;DHT22;52812;48.960;9.108;2023-02-11T02:10:20;-3.90;99.90
3086;DHT22;52812;48.960;9.108;2023-02-11T02:12:47;-3.90;99.90
3086;DHT22;52812;48.960;9.108;2023-02-11T02:15:26;-3.90;99.90
3086;DHT22;52812;48.960;9.108;2023-02-11T02:18:17;-3.90;99.90
3086;DHT22;52812;48.960;9.108;2023-02-11T02:23:28;-3.80;99.90
3086;DHT22;52812;48.960;9.108;2023-02-11T02:29:30;-3.70;99.90
3086;DHT22;52812;48.960;9.108;2023-02-11T02:34:57;-3.80;99.90
3086;DHT22;52812;48.960;9.108;2023-02-11T02:37:36;-3.80;99.90
3086;DHT22;52812;48.960;9.108;2023-02-11T02:40:09;-3.90;99.90
3086;DHT22;52812;48.960;9.108;2023-02-11T02:42:37;-3.90;99.90
3086;DHT22;52812;48.960;9.108;2023-02-11T02:45:04;-3.90;99.90
3086;DHT22;52812;48.960;9.108;2023-02-11T02:47:31;-3.90;99.90
3086;DHT22;52812;48.960;9.108;2023-02-11T02:49:56;-3.90;99.90
3086;DHT22;52812;48.960;9.108;2023-02-11T02:52:32;-3.80;99.90
3086;DHT22;52812;48.960;9.108;2023-02-11T03:00:52;-3.70;99.90
3086;DHT22;52812;48.960;9.108;2023-02-11T03:06:24;-3.80;99.90
3086;DHT22;52812;48.960;9.108;2023-02-11T03:11:53;-3.90;99.90
3086;DHT22;52812;48.960;9.108;2023-02-11T03:14:19;-3.80;99.90
3086;DHT22;52812;48.960;9.108;2023-02-11T03:16:47;-3.80;99.90
3086;DHT22;52812;48.960;9.108;2023-02-11T03:19:18;-3.70;99.90
3086;DHT22;52812;48.960;9.108;2023-02-11T03:21:46;-3.70;99.90
3086;DHT22;52812;48.960;9.108;2023-02-11T03:24:20;-3.60;99.90
3086;DHT22;52812;48.960;9.108;2023-02-11T03:26:53;-3.60;99.90
3086;DHT22;52812;48.960;9.108;2023-02-11T03:29:31;-3.60;99.90
3086;DHT22;52812;48.960;9.108;2023-02-11T03:35:00;-3.40;99.90
3086;DHT22;52812;48.960;9.108;2023-02-11T03:37:32;-3.30;99.90
3086;DHT22;52812;48.960;9.108;2023-02-11T03:40:15;-3.30;99.90
3086;DHT22;52812;48.960;9.108;2023-02-11T03:42:47;-3.30;99.90
3086;DHT22;52812;48.960;9.108;2023-02-11T03:45:16;-3.30;99.90
3086;DHT22;52812;48.960;9.108;2023-02-11T03:47:47;-3.30;99.90
3086;DHT22;52812;48.960;9.108;2023-02-11T03:50:15;-3.20;99.90
3086;DHT22;52812;48.960;9.108;2023-02-11T03:52:42;-3.30;99.90
3086;DHT22;52812;48.960;9.108;2023-02-11T03:55:11;-3.20;99.90
3086;DHT22;52812;48.960;9.108;2023-02-11T03:57:38;-3.10;99.90
3086;DHT22;52812;48.960;9.108;2023-02-11T04:00:05;-3.10;99.90
3086;DHT22;52812;48.960;9.108;2023-02-11T04:02:33;-3.10;99.90
3086;DHT22;52812;48.960;9.108;2023-02-11T04:04:58;-3.10;99.90
3086;DHT22;52812;48.960;9.108;2023-02-11T04:07:24;-3.00;99.90
3086;DHT22;52812;48.960;9.108;2023-02-11T04:09:51;-2.90;99.90
3086;DHT22;52812;48.960;9.108;2023-02-11T04:12:17;-2.90;99.90
3086;DHT22;52812;48.960;9.108;2023-02-11T04:14:42;-2.80;99.90
3086;DHT22;52812;48.960;9.108;2023-02-11T04:17:08;-2.80;99.90
3086;DHT22;52812;48.960;9.108;2023-02-11T04:19:34;-2.80;99.90
3086;DHT22;52812;48.960;9.108;2023-02-11T04:22:00;-2.80;99.90
3086;DHT22;52812;48.960;9.108;2023-02-11T04:24:25;-2.70;99.90
3086;DHT22;52812;48.960;9.108;2023-02-11T04:26:51;-2.70;99.90
3086;DHT22;52812;48.960;9.108;2023-02-11T04:29:17;-2.60;99.90
3086;DHT22;52812;48.960;9.108;2023-02-11T04:31:43;-2.60;99.90
3086;DHT22;52812;48.960;9.108;2023-02-11T04:34:08;-2.60;99.90
3086;DHT22;52812;48.960;9.108;2023-02-11T04:36:34;-2.50;99.90
3086;DHT22;52812;48.960;9.108;2023-02-11T04:39:00;-2.40;99.90
3086;DHT22;52812;48.960;9.108;2023-02-11T04:41:25;-2.40;99.90
3086;DHT22;52812;48.960;9.108;2023-02-11T04:43:51;-2.40;99.90
3086;DHT22;52812;48.960;9.108;2023-02-11T04:46:16;-2.40;99.90
3086;DHT22;52812;48.960;9.108;2023-02-11T04:48:42;-2.40;99.90
3086;DHT22;52812;48.960;9.108;2023-02-11T04:51:07;-2.40;99.90
3086;DHT22;52812;48.960;9.108;2023-02-11T04:53:33;-2.30;99.90
3086;DHT22;52812;48.960;9.108;2023-02-11T04:55:58;-2.30;99.90
3086;DHT22;52812;48.960;9.108;2023-02-11T04:58:24;-2.20;99.90
3086;DHT22;52812;48.960;9.108;2023-02-11T05:00:49;-2.20;99.90
3086;DHT22;52812;48.960;9.108;2023-02-11T05:03:15;-2.20;99.90
3086;DHT22;52812;48.960;9.108;2023-02-11T05:05:41;-2.20;99.90
3086;DHT22;52812;48.960;9.108;2023-02-11T05:08:08;-2.20;99.90
3086;DHT22;52812;48.960;9.108;2023-02-11T05:10:34;-2.20;99.90
3086;DHT22;52812;48.960;9.108;2023-02-11T05:12:59;-2.20;99.90
3086;DHT22;52812;48.960;9.108;2023-02-11T05:15:25;-2.20;99.90
3086;DHT22;52812;48.960;9.108;2023-02-11T05:17:52;-2.10;99.90
3086;DHT22;52812;48.960;9.108;2023-02-11T05:20:17;-2.10;99.90
3086;DHT22;52812;48.960;9.108;2023-02-11T05:22:43;-2.10;99.90
3086;DHT22;52812;48.960;9.108;2023-02-11T05:25:09;-2.00;99.90
3086;DHT22;52812;48.960;9.108;2023-02-11T05:27:34;-2.00;99.90
3086;DHT22;52812;48.960;9.108;2023-02-11T05:30:00;-2.00;99.90
3086;DHT22;52812;48.960;9.108;2023-02-11T05:32:25;-2.00;99.90
3086;DHT22;52812;48.960;9.108;2023-02-11T05:34:51;-2.00;99.90
3086;DHT22;52812;48.960;9.108;2023-02-11T05:37:17;-1.90;99.90
3086;DHT22;52812;48.960;9.108;2023-02-11T05:39:42;-1.80;99.90
3086;DHT22;52812;48.960;9.108;2023-02-11T05:42:08;-1.80;99.90
3086;DHT22;52812;48.960;9.108;2023-02-11T05:44:34;-1.80;99.90
3086;DHT22;52812;48.960;9.108;2023-02-11T05:46:59;-1.80;99.90
3086;DHT22;52812;48.960;9.108;2023-02-11T05:49:25;-1.70;99.90
3086;DHT22;52812;48.960;9.108;2023-02-11T05:51:50;-1.70;99.90
3086;DHT22;52812;48.960;9.108;2023-02-11T05:54:16;-1.60;99.90
3086;DHT22;52812;48.960;9.108;2023-02-11T05:56:42;-1.60;99.90
3086;DHT22;52812;48.960;9.108;2023-02-11T05:59:08;-1.60;99.90
3086;DHT22;52812;48.960;9.108;2023-02-11T06:01:33;-1.60;99.90
3086;DHT22;52812;48.960;9.108;2023-02-11T06:03:59;-1.60;99.90
3086;DHT22;52812;48.960;9.108;2023-02-11T06:06:25;-1.60;99.90
3086;DHT22;52812;48.960;9.108;2023-02-11T06:08:50;-1.60;99.90
3086;DHT22;52812;48.960;9.108;2023-02-11T06:11:17;-1.60;99.90
3086;DHT22;52812;48.960;9.108;2023-02-11T06:13:42;-1.60;99.90
3086;DHT22;52812;48.960;9.108;2023-02-11T06:16:08;-1.60;99.90
3086;DHT22;52812;48.960;9.108;2023-02-11T06:18:34;-1.60;99.90
3086;DHT22;52812;48.960;9.108;2023-02-11T06:21:00;-1.60;99.90
3086;DHT22;52812;48.960;9.108;2023-02-11T06:23:25;-1.50;99.90
3086;DHT22;52812;48.960;9.108;2023-02-11T06:25:51;-1.50;99.90
3086;DHT22;52812;48.960;9.108;2023-02-11T06:28:18;-1.50;99.90
3086;DHT22;52812;48.960;9.108;2023-02-11T06:30:43;-1.50;99.90
3086;DHT22;52812;48.960;9.108;2023-02-11T06:33:09;-1.50;99.90
3086;DHT22;52812;48.960;9.108;2023-02-11T06:35:37;-1.40;99.90
3086;DHT22;52812;48.960;9.108;2023-02-11T06:38:03;-1.30;99.90
3086;DHT22;52812;48.960;9.108;2023-02-11T06:40:28;-1.30;99.90
3086;DHT22;52812;48.960;9.108;2023-02-11T06:42:54;-1.30;99.90
3086;DHT22;52812;48.960;9.108;2023-02-11T06:45:20;-1.20;99.90
3086;DHT22;52812;48.960;9.108;2023-02-11T06:47:45;-1.10;99.90
3086;DHT22;52812;48.960;9.108;2023-02-11T06:50:13;-1.00;99.90
3086;DHT22;52812;48.960;9.108;2023-02-11T06:52:39;-0.90;99.90
3086;DHT22;52812;48.960;9.108;2023-02-11T06:55:05;-0.90;99.90
3086;DHT22;52812;48.960;9.108;2023-02-11T06:57:31;-1.00;99.90
3086;DHT22;52812;48.960;9.108;2023-02-11T06:59:56;-1.00;99.90
3086;DHT22;52812;48.960;9.108;2023-02-11T07:02:22;-1.00;99.90
3086;DHT22;52812;48.960;9.108;2023-02-11T07:04:48;-1.00;99.90
3086;DHT22;52812;48.960;9.108;2023-02-11T07:07:13;-1.00;99.90
3086;DHT22;52812;48.960;9.108;2023-02-11T07:09:39;-1.10;99.90
3086;DHT22;52812;48.960;9.108;2023-02-11T07:12:05;-1.00;99.90
3086;DHT22;52812;48.960;9.108;2023-02-11T07:14:30;-1.00;99.90
3086;DHT22;52812;48.960;9.108;2023-02-11T07:16:56;-0.90;99.90
3086;DHT22;52812;48.960;9.108;2023-02-11T07:19:22;-0.80;99.90
3086;DHT22;52812;48.960;9.108;2023-02-11T07:21:47;-0.70;99.90
3086;DHT22;52812;48.960;9.108;2023-02-11T07:24:13;-0.70;99.90
3086;DHT22;52812;48.960;9.108;2023-02-11T07:26:39;-0.70;99.90
3086;DHT22;52812;48.960;9.108;2023-02-11T07:29:05;-0.60;99.90
3086;DHT22;52812;48.960;9.108;2023-02-11T07:31:30;-0.60;99.90
3086;DHT22;52812;48.960;9.108;2023-02-11T07:33:58;-0.50;99.90
3086;DHT22;52812;48.960;9.108;2023-02-11T07:36:25;-0.40;99.90
3086;DHT22;52812;48.960;9.108;2023-02-11T07:38:51;-0.30;99.90
3086;DHT22;52812;48.960;9.108;2023-02-11T07:41:19;-0.30;99.90
3086;DHT22;52812;48.960;9.108;2023-02-11T07:43:45;-0.20;99.90
3086;DHT22;52812;48.960;9.108;2023-02-11T07:46:14;-0.20;99.90
3086;DHT22;52812;48.960;9.108;2023-02-11T07:48:39;-0.10;99.90
3086;DHT22;52812;48.960;9.108;2023-02-11T07:51:11;-0.10;99.90
3086;DHT22;52812;48.960;9.108;2023-02-11T07:53:37;0.00;99.90
3086;DHT22;52812;48.960;9.108;2023-02-11T07:56:04;0.00;99.90
3086;DHT22;52812;48.960;9.108;2023-02-11T07:58:31;0.10;99.90
3086;DHT22;52812;48.960;9.108;2023-02-11T08:01:08;0.20;99.90
3086;DHT22;52812;48.960;9.108;2023-02-11T08:03:35;0.20;99.90
3086;DHT22;52812;48.960;9.108;2023-02-11T08:06:12;0.30;99.90
3086;DHT22;52812;48.960;9.108;2023-02-11T08:08:38;0.30;99.90
3086;DHT22;52812;48.960;9.108;2023-02-11T08:11:25;0.40;99.90
3086;DHT22;52812;48.960;9.108;2023-02-11T08:13:51;0.40;99.90
3086;DHT22;52812;48.960;9.108;2023-02-11T08:16:22;0.50;99.90
3086;DHT22;52812;48.960;9.108;2023-02-11T08:18:48;0.50;99.90
3086;DHT22;52812;48.960;9.108;2023-02-11T08:21:14;0.50;99.90
3086;DHT22;52812;48.960;9.108;2023-02-11T08:23:41;0.50;99.90
3086;DHT22;52812;48.960;9.108;2023-02-11T08:26:13;0.70;99.90
3086;DHT22;52812;48.960;9.108;2023-02-11T08:28:40;0.90;99.90
3086;DHT22;52812;48.960;9.108;2023-02-11T08:31:18;1.10;99.90
3086;DHT22;52812;48.960;9.108;2023-02-11T08:33:44;1.20;99.90
3086;DHT22;52812;48.960;9.108;2023-02-11T08:36:13;1.40;99.90
3086;DHT22;52812;48.960;9.108;2023-02-11T08:38:39;1.70;99.90
3086;DHT22;52812;48.960;9.108;2023-02-11T08:41:05;1.80;99.90
3086;DHT22;52812;48.960;9.108;2023-02-11T08:43:31;1.90;99.90
3086;DHT22;52812;48.960;9.108;2023-02-11T08:45:57;2.00;99.90
3086;DHT22;52812;48.960;9.108;2023-02-11T08:48:23;2.10;99.90
3086;DHT22;52812;48.960;9.108;2023-02-11T08:50:49;2.00;99.90
3086;DHT22;52812;48.960;9.108;2023-02-11T08:53:14;2.00;99.90
3086;DHT22;52812;48.960;9.108;2023-02-11T08:55:40;2.00;99.90
3086;DHT22;52812;48.960;9.108;2023-02-11T08:58:12;2.20;99.90
3086;DHT22;52812;48.960;9.108;2023-02-11T09:00:37;2.20;99.90
3086;DHT22;52812;48.960;9.108;2023-02-11T09:03:03;2.30;99.90
3086;DHT22;52812;48.960;9.108;2023-02-11T09:05:29;2.50;99.90
3086;DHT22;52812;48.960;9.108;2023-02-11T09:07:54;2.80;99.90
3086;DHT22;52812;48.960;9.108;2023-02-11T09:10:20;2.90;99.90
3086;DHT22;52812;48.960;9.108;2023-02-11T09:12:45;3.10;99.90
3086;DHT22;52812;48.960;9.108;2023-02-11T09:15:11;3.30;99.90
3086;DHT22;52812;48.960;9.108;2023-02-11T09:17:36;3.40;99.90
3086;DHT22;52812;48.960;9.108;2023-02-11T09:20:02;3.50;99.90
3086;DHT22;52812;48.960;9.108;2023-02-11T09:22:28;3.60;99.90
3086;DHT22;52812;48.960;9.108;2023-02-11T09:24:53;3.50;99.90
3086;DHT22;52812;48.960;9.108;2023-02-11T09:27:19;3.40;99.90
3086;DHT22;52812;48.960;9.108;2023-02-11T09:29:44;3.50;99.90
3086;DHT22;52812;48.960;9.108;2023-02-11T09:32:10;3.60;99.90
3086;DHT22;52812;48.960;9.108;2023-02-11T09:34:35;3.80;99.90
3086;DHT22;52812;48.960;9.108;2023-02-11T09:37:01;3.90;99.90
3086;DHT22;52812;48.960;9.108;2023-02-11T09:39:27;4.10;99.90
3086;DHT22;52812;48.960;9.108;2023-02-11T09:44:38;4.40;99.90
3086;DHT22;52812;48.960;9.108;2023-02-11T09:47:22;4.40;99.90
3086;DHT22;52812;48.960;9.108;2023-02-11T09:49:50;4.50;99.90
3086;DHT22;52812;48.960;9.108;2023-02-11T09:52:32;4.50;99.90
3086;DHT22;52812;48.960;9.108;2023-02-11T09:55:04;4.50;99.90
3086;DHT22;52812;48.960;9.108;2023-02-11T09:57:35;4.50;99.90
3086;DHT22;52812;48.960;9.108;2023-02-11T10:00:15;4.70;99.90
3086;DHT22;52812;48.960;9.108;2023-02-11T10:03:15;4.70;99.90
3086;DHT22;52812;48.960;9.108;2023-02-11T10:05:53;4.80;99.90
3086;DHT22;52812;48.960;9.108;2023-02-11T10:11:38;5.00;99.90
3086;DHT22;52812;48.960;9.108;2023-02-11T10:22:57;5.40;99.90
3086;DHT22;52812;48.960;9.108;2023-02-11T10:25:36;5.40;99.90
3086;DHT22;52812;48.960;9.108;2023-02-11T10:28:23;5.50;99.90
3086;DHT22;52812;48.960;9.108;2023-02-11T10:33:30;5.70;99.90
3086;DHT22;52812;48.960;9.108;2023-02-11T10:35:58;5.80;99.90
3086;DHT22;52812;48.960;9.108;2023-02-11T10:38:24;5.80;99.90
3086;DHT22;52812;48.960;9.108;2023-02-11T10:40:50;5.80;99.90
3086;DHT22;52812;48.960;9.108;2023-02-11T10:43:18;5.90;99.90
3086;DHT22;52812;48.960;9.108;2023-02-11T10:45:53;6.00;99.90
3086;DHT22;52812;48.960;9.108;2023-02-11T10:48:36;6.10;99.90
3086;DHT22;52812;48.960;9.108;2023-02-11T10:53:36;6.20;99.90
3086;DHT22;52812;48.960;9.108;2023-02-11T10:56:02;6.40;99.90
3086;DHT22;52812;48.960;9.108;2023-02-11T10:58:35;6.40;99.90
3086;DHT22;52812;48.960;9.108;2023-02-11T11:01:04;6.60;99.90
3086;DHT22;52812;48.960;9.108;2023-02-11T11:03:39;6.80;99.90
3086;DHT22;52812;48.960;9.108;2023-02-11T11:06:10;7.10;99.90
3086;DHT22;52812;48.960;9.108;2023-02-11T11:08:48;7.30;99.90
3086;DHT22;52812;48.960;9.108;2023-02-11T11:11:20;7.30;99.90
3086;DHT22;52812;48.960;9.108;2023-02-11T11:18:37;7.70;99.90
3086;DHT22;52812;48.960;9.108;2023-02-11T11:21:17;7.70;99.90
3086;DHT22;52812;48.960;9.108;2023-02-11T11:23:55;7.60;99.90
3086;DHT22;52812;48.960;9.108;2023-02-11T11:26:22;7.60;99.90
3086;DHT22;52812;48.960;9.108;2023-02-11T11:33:52;8.30;99.90
3086;DHT22;52812;48.960;9.108;2023-02-11T11:36:21;8.40;99.90
3086;DHT22;52812;48.960;9.108;2023-02-11T11:38:54;8.50;99.90
3086;DHT22;52812;48.960;9.108;2023-02-11T11:41:26;8.80;99.90
3086;DHT22;52812;48.960;9.108;2023-02-11T11:44:29;8.30;99.90
3086;DHT22;52812;48.960;9.108;2023-02-11T11:49:41;7.70;99.90
3086;DHT22;52812;48.960;9.108;2023-02-11T11:55:34;7.80;99.90
3086;DHT22;52812;48.960;9.108;2023-02-11T11:58:00;7.60;99.90
3086;DHT22;52812;48.960;9.108;2023-02-11T12:04:02;7.50;99.90
3086;DHT22;52812;48.960;9.108;2023-02-11T12:09:18;7.70;99.90
3086;DHT22;52812;48.960;9.108;2023-02-11T12:14:58;7.70;99.90
3086;DHT22;52812;48.960;9.108;2023-02-11T12:17:35;7.90;99.90
3086;DHT22;52812;48.960;9.108;2023-02-11T12:33:58;7.80;99.90
3086;DHT22;52812;48.960;9.108;2023-02-11T12:36:29;7.80;99.90
3086;DHT22;52812;48.960;9.108;2023-02-11T12:39:20;7.90;99.90
3086;DHT22;52812;48.960;9.108;2023-02-11T12:55:52;7.30;99.90
3086;DHT22;52812;48.960;9.108;2023-02-11T12:58:22;7.30;99.90
3086;DHT22;52812;48.960;9.108;2023-02-11T13:00:57;7.40;99.90
3086;DHT22;52812;48.960;9.108;2023-02-11T13:03:34;7.50;99.90
3086;DHT22;52812;48.960;9.108;2023-02-11T13:06:08;7.50;99.90
3086;DHT22;52812;48.960;9.108;2023-02-11T13:08:47;7.30;99.90
3086;DHT22;52812;48.960;9.108;2023-02-11T13:11:20;7.30;99.90
3086;DHT22;52812;48.960;9.108;2023-02-11T13:13:57;7.40;99.90
3086;DHT22;52812;48.960;9.108;2023-02-11T13:16:38;7.30;99.90
3086;DHT22;52812;48.960;9.108;2023-02-11T13:25:05;7.40;99.90
3086;DHT22;52812;48.960;9.108;2023-02-11T13:27:42;7.30;99.90
3086;DHT22;52812;48.960;9.108;2023-02-11T13:35:30;7.80;99.90
3086;DHT22;52812;48.960;9.108;2023-02-11T13:37:58;7.70;99.90
3086;DHT22;52812;48.960;9.108;2023-02-11T13:40:35;7.90;99.90
3086;DHT22;52812;48.960;9.108;2023-02-11T13:43:04;8.20;99.90
3086;DHT22;52812;48.960;9.108;2023-02-11T13:45:42;8.30;99.90
3086;DHT22;52812;48.960;9.108;2023-02-11T13:48:49;8.20;99.90
3086;DHT22;52812;48.960;9.108;2023-02-11T13:51:32;8.10;99.90
3086;DHT22;52812;48.960;9.108;2023-02-11T13:53:59;8.00;99.90
3086;DHT22;52812;48.960;9.108;2023-02-11T13:56:29;7.90;99.90
3086;DHT22;52812;48.960;9.108;2023-02-11T13:58:57;7.70;99.90
3086;DHT22;52812;48.960;9.108;2023-02-11T14:04:32;7.40;99.90
3086;DHT22;52812;48.960;9.108;2023-02-11T14:13:29;7.30;99.90
3086;DHT22;52812;48.960;9.108;2023-02-11T14:18:56;7.40;99.90
3086;DHT22;52812;48.960;9.108;2023-02-11T14:26:43;7.50;99.90
3086;DHT22;52812;48.960;9.108;2023-02-11T14:29:47;7.50;99.90
3086;DHT22;52812;48.960;9.108;2023-02-11T14:35:11;7.50;99.90
3086;DHT22;52812;48.960;9.108;2023-02-11T14:37:49;7.50;99.90
3086;DHT22;52812;48.960;9.108;2023-02-11T14:41:13;7.40;99.90
3086;DHT22;52812;48.960;9.108;2023-02-11T14:43:21;7.30;99.90
3086;DHT22;52812;48.960;9.108;2023-02-11T14:45:55;7.20;99.90
3086;DHT22;52812;48.960;9.108;2023-02-11T14:48:31;7.20;99.90
3086;DHT22;52812;48.960;9.108;2023-02-11T14:53:34;7.20;99.90
3086;DHT22;52812;48.960;9.108;2023-02-11T14:56:00;7.20;99.90
3086;DHT22;52812;48.960;9.108;2023-02-11T14:58:30;7.20;99.90
3086;DHT22;52812;48.960;9.108;2023-02-11T15:01:03;7.30;99.90
3086;DHT22;52812;48.960;9.108;2023-02-11T15:03:39;7.40;99.90
3086;DHT22;52812;48.960;9.108;2023-02-11T15:06:16;7.40;99.90
3086;DHT22;52812;48.960;9.108;2023-02-11T15:08:49;7.40;99.90
3086;DHT22;52812;48.960;9.108;2023-02-11T15:11:18;7.50;99.90
3086;DHT22;52812;48.960;9.108;2023-02-11T15:13:44;7.30;99.90
3086;DHT22;52812;48.960;9.108;2023-02-11T15:16:16;7.40;99.90
3086;DHT22;52812;48.960;9.108;2023-02-11T15:18:47;7.40;99.90
3086;DHT22;52812;48.960;9.108;2023-02-11T15:21:25;7.40;99.90
3086;DHT22;52812;48.960;9.108;2023-02-11T15:26:22;7.30;99.90
3086;DHT22;52812;48.960;9.108;2023-02-11T15:28:48;7.30;99.90
3086;DHT22;52812;48.960;9.108;2023-02-11T15:31:18;7.30;99.90
3086;DHT22;52812;48.960;9.108;2023-02-11T15:33:44;7.30;99.90
3086;DHT22;52812;48.960;9.108;2023-02-11T15:36:11;7.20;99.90
3086;DHT22;52812;48.960;9.108;2023-02-11T15:38:38;7.00;99.90
3086;DHT22;52812;48.960;9.108;2023-02-11T15:41:05;7.00;99.90
3086;DHT22;52812;48.960;9.108;2023-02-11T15:43:45;6.90;99.90
3086;DHT22;52812;48.960;9.108;2023-02-11T15:46:14;6.90;99.90
3086;DHT22;52812;48.960;9.108;2023-02-11T15:48:43;6.90;99.90
3086;DHT22;52812;48.960;9.108;2023-02-11T15:51:22;6.90;99.90
3086;DHT22;52812;48.960;9.108;2023-02-11T15:53:53;6.80;99.90
3086;DHT22;52812;48.960;9.108;2023-02-11T15:56:35;6.80;99.90
3086;DHT22;52812;48.960;9.108;2023-02-11T15:59:21;6.80;99.90
3086;DHT22;52812;48.960;9.108;2023-02-11T16:01:50;6.80;99.90
3086;DHT22;52812;48.960;9.108;2023-02-11T16:04:22;6.80;99.90
3086;DHT22;52812;48.960;9.108;2023-02-11T16:06:49;6.80;99.90
3086;DHT22;52812;48.960;9.108;2023-02-11T16:16:49;6.50;99.90
3086;DHT22;52812;48.960;9.108;2023-02-11T16:19:20;6.50;99.90
3086;DHT22;52812;48.960;9.108;2023-02-11T16:21:47;6.40;99.90
3086;DHT22;52812;48.960;9.108;2023-02-11T16:24:31;6.40;99.90
3086;DHT22;52812;48.960;9.108;2023-02-11T16:27:03;6.40;99.90
3086;DHT22;52812;48.960;9.108;2023-02-11T16:29:31;6.30;99.90
3086;DHT22;52812;48.960;9.108;2023-02-11T16:32:30;6.30;99.90
3086;DHT22;52812;48.960;9.108;2023-02-11T16:34:58;6.20;99.90
3086;DHT22;52812;48.960;9.108;2023-02-11T16:37:25;6.30;99.90
3086;DHT22;52812;48.960;9.108;2023-02-11T16:39:54;6.30;99.90
3086;DHT22;52812;48.960;9.108;2023-02-11T16:42:20;6.20;99.90
3086;DHT22;52812;48.960;9.108;2023-02-11T16:44:46;6.30;99.90
3086;DHT22;52812;48.960;9.108;2023-02-11T16:47:26;6.30;99.90
3086;DHT22;52812;48.960;9.108;2023-02-11T16:49:52;6.30;99.90
3086;DHT22;52812;48.960;9.108;2023-02-11T16:52:20;6.30;99.90
3086;DHT22;52812;48.960;9.108;2023-02-11T16:54:46;6.30;99.90
3086;DHT22;52812;48.960;9.108;2023-02-11T16:57:22;6.30;99.90
3086;DHT22;52812;48.960;9.108;2023-02-11T16:59:49;6.20;99.90
3086;DHT22;52812;48.960;9.108;2023-02-11T17:02:19;6.20;99.90
3086;DHT22;52812;48.960;9.108;2023-02-11T17:04:46;6.20;99.90
3086;DHT22;52812;48.960;9.108;2023-02-11T17:07:12;6.10;99.90
3086;DHT22;52812;48.960;9.108;2023-02-11T17:09:38;6.10;99.90
3086;DHT22;52812;48.960;9.108;2023-02-11T17:12:03;6.10;99.90
3086;DHT22;52812;48.960;9.108;2023-02-11T17:14:29;6.00;99.90
3086;DHT22;52812;48.960;9.108;2023-02-11T17:16:55;6.00;99.90
3086;DHT22;52812;48.960;9.108;2023-02-11T17:19:21;5.90;99.90
3086;DHT22;52812;48.960;9.108;2023-02-11T17:21:48;5.90;99.90
3086;DHT22;52812;48.960;9.108;2023-02-11T17:24:15;5.80;99.90
3086;DHT22;52812;48.960;9.108;2023-02-11T17:26:41;5.70;99.90
3086;DHT22;52812;48.960;9.108;2023-02-11T17:29:10;5.60;99.90
3086;DHT22;52812;48.960;9.108;2023-02-11T17:31:37;5.60;99.90
3086;DHT22;52812;48.960;9.108;2023-02-11T17:34:03;5.60;99.90
3086;DHT22;52812;48.960;9.108;2023-02-11T17:36:28;5.60;99.90
3086;DHT22;52812;48.960;9.108;2023-02-11T17:38:58;5.50;99.90
3086;DHT22;52812;48.960;9.108;2023-02-11T17:41:25;5.60;99.90
3086;DHT22;52812;48.960;9.108;2023-02-11T17:43:51;5.50;99.90
3086;DHT22;52812;48.960;9.108;2023-02-11T17:46:16;5.40;99.90
3086;DHT22;52812;48.960;9.108;2023-02-11T17:48:42;5.30;99.90
3086;DHT22;52812;48.960;9.108;2023-02-11T17:51:24;5.30;99.90
3086;DHT22;52812;48.960;9.108;2023-02-11T17:53:51;5.30;99.90
3086;DHT22;52812;48.960;9.108;2023-02-11T17:56:17;5.30;99.90
3086;DHT22;52812;48.960;9.108;2023-02-11T17:58:43;5.30;99.90
3086;DHT22;52812;48.960;9.108;2023-02-11T18:01:08;5.30;99.90
3086;DHT22;52812;48.960;9.108;2023-02-11T18:03:34;5.30;99.90
3086;DHT22;52812;48.960;9.108;2023-02-11T18:06:01;5.30;99.90
3086;DHT22;52812;48.960;9.108;2023-02-11T18:08:27;5.20;99.90
3086;DHT22;52812;48.960;9.108;2023-02-11T18:10:53;5.10;99.90
3086;DHT22;52812;48.960;9.108;2023-02-11T18:13:19;5.10;99.90
3086;DHT22;52812;48.960;9.108;2023-02-11T18:15:45;5.10;99.90
3086;DHT22;52812;48.960;9.108;2023-02-11T18:18:10;5.00;99.90
3086;DHT22;52812;48.960;9.108;2023-02-11T18:20:36;5.00;99.90
3086;DHT22;52812;48.960;9.108;2023-02-11T18:23:01;4.90;99.90
3086;DHT22;52812;48.960;9.108;2023-02-11T18:25:27;4.90;99.90
3086;DHT22;52812;48.960;9.108;2023-02-11T18:27:54;4.80;99.90
3086;DHT22;52812;48.960;9.108;2023-02-11T18:30:20;4.80;99.90
3086;DHT22;52812;48.960;9.108;2023-02-11T18:32:46;4.70;99.90
3086;DHT22;52812;48.960;9.108;2023-02-11T18:35:13;4.70;99.90
3086;DHT22;52812;48.960;9.108;2023-02-11T18:37:42;4.90;99.90